createdAt,value
2022-11-21T00:00:46.833Z,0.60
2022-11-21T00:03:13.708Z,0.50
2022-11-21T00:05:42.791Z,0.70
2022-11-21T00:08:17.008Z,0.50
2022-11-21T00:10:44.038Z,0.63
2022-11-21T00:13:20.588Z,0.60
2022-11-21T00:15:47.849Z,0.60
2022-11-21T00:18:15.640Z,0.50
2022-11-21T00:20:43.420Z,0.70
2022-11-21T00:23:10.396Z,0.50
2022-11-21T00:25:38.397Z,0.50
2022-11-21T00:28:05.647Z,0.50
2022-11-21T00:30:32.291Z,0.53
2022-11-21T00:32:59.160Z,0.47
2022-11-21T00:35:25.788Z,0.40
2022-11-21T00:37:52.235Z,0.40
2022-11-21T00:40:19.289Z,0.60
2022-11-21T00:42:48.732Z,0.50
2022-11-21T00:45:19.632Z,0.57
2022-11-21T00:47:49.470Z,0.60
2022-11-21T00:50:16.022Z,0.40
2022-11-21T00:52:42.574Z,0.60
2022-11-21T00:55:09.660Z,0.50
2022-11-21T00:57:36.328Z,0.40
2022-11-21T01:00:04.088Z,0.40
2022-11-21T01:02:32.417Z,0.40
2022-11-21T01:04:58.958Z,0.40
2022-11-21T01:07:25.548Z,0.60
2022-11-21T01:09:52.152Z,0.40
2022-11-21T01:12:18.726Z,0.40
2022-11-21T01:14:45.432Z,0.40
2022-11-21T01:17:11.916Z,0.40
2022-11-21T01:19:38.477Z,0.50
2022-11-21T01:22:05.169Z,0.30
2022-11-21T01:24:31.933Z,0.40
2022-11-21T01:26:58.522Z,0.50
2022-11-21T01:29:25.308Z,0.57
2022-11-21T01:31:51.929Z,0.43
2022-11-21T01:34:18.810Z,0.47
2022-11-21T01:36:45.524Z,0.40
2022-11-21T01:39:12.445Z,0.50
2022-11-21T01:41:44.086Z,0.50
2022-11-21T01:44:10.674Z,0.53
2022-11-21T01:46:37.193Z,0.50
2022-11-21T01:49:12.140Z,0.60
2022-11-21T01:51:53.993Z,0.40
2022-11-21T01:54:36.386Z,0.50
2022-11-21T01:57:31.287Z,0.47
2022-11-21T02:00:21.688Z,0.60
2022-11-21T02:02:56.359Z,0.30
2022-11-21T02:05:27.672Z,0.40
2022-11-21T02:07:58.376Z,0.40
2022-11-21T02:10:25.510Z,0.80
2022-11-21T02:12:59.512Z,0.37
2022-11-21T02:15:28.268Z,0.50
2022-11-21T02:17:54.788Z,0.50
2022-11-21T02:20:23.693Z,0.47
2022-11-21T02:23:22.571Z,0.50
2022-11-21T02:25:51.179Z,0.50
2022-11-21T02:28:21.606Z,0.70
2022-11-21T02:30:48.126Z,0.60
2022-11-21T02:33:15.931Z,0.80
2022-11-21T02:35:42.505Z,0.47
2022-11-21T02:38:19.832Z,0.70
2022-11-21T02:40:55.140Z,0.60
2022-11-21T02:43:30.938Z,0.53
2022-11-21T02:45:59.087Z,0.60
2022-11-21T02:48:25.633Z,0.50
2022-11-21T02:50:52.219Z,0.43
2022-11-21T02:53:19.308Z,0.70
2022-11-21T02:55:46.360Z,0.47
2022-11-21T02:58:13.396Z,0.40
2022-11-21T03:00:42.137Z,0.40
2022-11-21T03:03:08.905Z,0.50
2022-11-21T03:05:36.018Z,0.53
2022-11-21T03:08:03.788Z,0.47
2022-11-21T03:10:30.615Z,0.57
2022-11-21T03:13:01.404Z,0.43
2022-11-21T03:15:34.174Z,0.50
2022-11-21T03:18:03.177Z,0.40
2022-11-21T03:20:31.189Z,0.40
2022-11-21T03:22:57.698Z,0.50
2022-11-21T03:25:24.277Z,0.60
2022-11-21T03:27:54.700Z,0.50
2022-11-21T03:30:24.998Z,0.40
2022-11-21T03:32:54.809Z,0.40
2022-11-21T03:35:21.447Z,0.30
2022-11-21T03:37:48.895Z,0.40
2022-11-21T03:40:15.706Z,0.50
2022-11-21T03:42:42.289Z,0.60
2022-11-21T03:45:09.390Z,0.40
2022-11-21T03:47:35.959Z,0.40
2022-11-21T03:50:02.645Z,0.40
2022-11-21T03:52:29.199Z,0.40
2022-11-21T03:54:55.867Z,0.40
2022-11-21T03:57:22.464Z,0.50
2022-11-21T03:59:49.432Z,0.47
2022-11-21T04:02:16.040Z,0.40
2022-11-21T04:04:42.585Z,0.50
2022-11-21T04:07:09.224Z,0.43
2022-11-21T04:09:35.831Z,0.40
2022-11-21T04:12:07.233Z,0.50
2022-11-21T04:14:34.766Z,0.40
2022-11-21T04:17:01.397Z,0.40
2022-11-21T04:19:28.351Z,0.40
2022-11-21T04:21:54.913Z,0.40
2022-11-21T04:24:21.503Z,0.60
2022-11-21T04:26:48.130Z,0.40
2022-11-21T04:29:14.741Z,0.60
2022-11-21T04:31:41.811Z,0.40
2022-11-21T04:34:08.411Z,0.40
2022-11-21T04:36:35.197Z,0.53
2022-11-21T04:39:03.296Z,0.40
2022-11-21T04:41:30.122Z,0.40
2022-11-21T04:43:56.749Z,0.30
2022-11-21T04:46:23.313Z,0.50
2022-11-21T04:48:49.946Z,0.60
2022-11-21T04:51:17.614Z,0.40
2022-11-21T04:53:44.736Z,0.60
2022-11-21T04:56:11.559Z,0.40
2022-11-21T04:58:38.126Z,0.40
2022-11-21T05:01:09.132Z,0.40
2022-11-21T05:03:36.381Z,0.40
2022-11-21T05:06:03.396Z,0.50
2022-11-21T05:08:30.039Z,0.60
2022-11-21T05:11:16.979Z,0.70
2022-11-21T05:13:44.426Z,0.57
2022-11-21T05:16:10.962Z,0.60
2022-11-21T05:18:37.435Z,0.67
2022-11-21T05:21:04.145Z,0.80
2022-11-21T05:23:55.872Z,0.60
2022-11-21T05:26:22.556Z,0.67
2022-11-21T05:28:49.279Z,0.40
2022-11-21T05:31:16.104Z,0.40
2022-11-21T05:33:42.578Z,0.60
2022-11-21T05:36:09.171Z,0.50
2022-11-21T05:38:35.964Z,0.63
2022-11-21T05:41:03.632Z,0.87
2022-11-21T05:43:49.223Z,0.80
2022-11-21T05:46:24.485Z,0.90
2022-11-21T05:48:53.919Z,0.80
2022-11-21T05:51:21.564Z,0.80
2022-11-21T05:53:48.765Z,2.90
2022-11-21T05:56:19.192Z,9.60
2022-11-21T05:58:46.510Z,10.57
2022-11-21T06:01:14.814Z,3.83
2022-11-21T06:03:42.554Z,1.30
2022-11-21T06:06:14.298Z,1.20
2022-11-21T06:08:46.639Z,0.90
2022-11-21T06:11:15.448Z,0.80
2022-11-21T06:13:42.641Z,0.83
2022-11-21T06:16:13.444Z,1.57
2022-11-21T06:18:42.608Z,2.03
2022-11-21T06:21:41.257Z,1.40
2022-11-21T06:24:08.338Z,1.00
2022-11-21T06:26:34.947Z,0.90
2022-11-21T06:29:02.452Z,0.80
2022-11-21T06:31:31.936Z,1.10
2022-11-21T06:33:59.532Z,1.10
2022-11-21T06:36:26.869Z,1.00
2022-11-21T06:38:55.024Z,0.90
2022-11-21T06:41:26.940Z,1.00
2022-11-21T06:43:53.480Z,1.10
2022-11-21T06:46:20.249Z,0.97
2022-11-21T06:48:47.027Z,1.00
2022-11-21T06:51:19.322Z,0.77
2022-11-21T06:53:47.253Z,1.10
2022-11-21T06:56:15.432Z,0.83
2022-11-21T06:58:42.206Z,0.97
2022-11-21T07:01:10.523Z,1.03
2022-11-21T07:03:37.101Z,1.00
2022-11-21T07:06:04.404Z,0.90
2022-11-21T07:08:37.951Z,1.10
2022-11-21T07:11:24.600Z,0.90
2022-11-21T07:13:52.280Z,0.90
2022-11-21T07:16:20.043Z,1.00
2022-11-21T07:18:46.605Z,0.83
2022-11-21T07:21:13.207Z,1.00
2022-11-21T07:23:40.028Z,0.97
2022-11-21T07:26:08.579Z,1.07
2022-11-21T07:28:35.565Z,1.10
2022-11-21T07:31:08.545Z,1.30
2022-11-21T07:33:37.422Z,0.87
2022-11-21T07:36:04.518Z,1.10
2022-11-21T07:38:31.179Z,0.70
2022-11-21T07:40:57.753Z,1.00
2022-11-21T07:43:24.444Z,1.10
2022-11-21T07:45:51.308Z,1.10
2022-11-21T07:48:18.315Z,1.50
2022-11-21T07:50:45.003Z,0.90
2022-11-21T07:53:11.963Z,1.20
2022-11-21T07:55:40.769Z,0.90
2022-11-21T07:58:14.585Z,1.00
2022-11-21T08:00:43.169Z,0.93
2022-11-21T08:03:13.170Z,0.87
2022-11-21T08:05:45.539Z,1.07
2022-11-21T08:08:13.290Z,0.97
2022-11-21T08:10:42.617Z,1.07
2022-11-21T08:13:09.717Z,1.10
2022-11-21T08:15:37.342Z,0.90
2022-11-21T08:18:11.915Z,1.10
2022-11-21T08:20:39.223Z,1.00
2022-11-21T08:23:06.983Z,1.00
2022-11-21T08:25:40.236Z,1.00
2022-11-21T08:28:10.562Z,1.40
2022-11-21T08:30:38.031Z,1.17
2022-11-21T08:33:07.172Z,1.00
2022-11-21T08:35:37.084Z,1.10
2022-11-21T08:38:06.409Z,1.10
2022-11-21T08:40:34.170Z,1.40
2022-11-21T08:43:03.849Z,1.40
2022-11-21T08:45:30.865Z,1.10
2022-11-21T08:47:57.348Z,1.57
2022-11-21T08:50:24.565Z,1.30
2022-11-21T08:52:51.189Z,1.10
2022-11-21T08:55:18.268Z,1.53
2022-11-21T08:57:44.760Z,1.57
2022-11-21T09:00:15.133Z,1.10
2022-11-21T09:02:41.694Z,1.53
2022-11-21T09:05:09.247Z,1.30
2022-11-21T09:07:36.468Z,1.10
2022-11-21T09:10:03.362Z,1.23
2022-11-21T09:12:31.337Z,1.10
2022-11-21T09:15:17.445Z,1.17
2022-11-21T09:18:02.680Z,1.20
2022-11-21T09:20:29.469Z,1.30
2022-11-21T09:22:56.174Z,1.60
2022-11-21T09:25:22.648Z,1.30
2022-11-21T09:27:49.172Z,1.33
2022-11-21T09:30:16.696Z,1.60
2022-11-21T09:32:43.167Z,1.60
2022-11-21T09:35:09.635Z,1.40
2022-11-21T09:37:39.228Z,1.20
2022-11-21T09:40:06.537Z,1.00
2022-11-21T09:42:51.445Z,1.10
2022-11-21T09:45:51.766Z,1.20
2022-11-21T09:48:30.609Z,1.20
2022-11-21T09:51:20.241Z,1.17
2022-11-21T09:54:19.866Z,1.97
2022-11-21T09:56:48.266Z,1.33
2022-11-21T09:59:35.452Z,1.50
2022-11-21T10:02:03.810Z,0.83
2022-11-21T10:04:31.670Z,1.20
2022-11-21T10:07:06.971Z,0.90
2022-11-21T10:09:44.542Z,1.53
2022-11-21T10:12:37.657Z,1.30
2022-11-21T10:15:26.507Z,1.37
2022-11-21T10:18:22.185Z,1.67
2022-11-21T10:21:02.435Z,1.13
2022-11-21T10:23:54.632Z,1.37
2022-11-21T10:26:21.281Z,1.30
2022-11-21T10:28:55.412Z,1.10
2022-11-21T10:31:24.131Z,1.00
2022-11-21T10:33:56.036Z,1.20
2022-11-21T10:36:37.815Z,1.20
2022-11-21T10:39:27.640Z,1.10
2022-11-21T10:42:41.368Z,0.97
2022-11-21T10:45:19.221Z,1.20
2022-11-21T10:47:48.344Z,1.10
2022-11-21T10:50:29.344Z,1.10
2022-11-21T10:53:25.977Z,1.00
2022-11-21T10:56:20.928Z,0.90
2022-11-21T10:58:55.234Z,0.93
2022-11-21T11:01:21.800Z,1.40
2022-11-21T11:07:00.025Z,0.93
2022-11-21T11:09:31.597Z,1.03
2022-11-21T11:12:47.901Z,0.80
2022-11-21T11:15:20.848Z,1.00
2022-11-21T11:18:05.836Z,1.13
2022-11-21T11:20:48.097Z,1.10
2022-11-21T11:23:26.981Z,0.80
2022-11-21T11:25:57.783Z,1.07
2022-11-21T11:28:25.705Z,1.00
2022-11-21T11:30:54.967Z,1.10
2022-11-21T11:33:35.324Z,1.10
2022-11-21T11:36:23.647Z,1.27
2022-11-21T11:38:57.214Z,0.93
2022-11-21T11:42:01.271Z,1.03
2022-11-21T11:45:09.585Z,0.90
2022-11-21T11:47:52.984Z,1.40
2022-11-21T11:50:45.371Z,0.87
2022-11-21T11:53:18.828Z,0.93
2022-11-21T11:55:53.079Z,1.30
2022-11-21T11:58:35.532Z,0.80
2022-11-21T12:01:10.307Z,1.00
2022-11-21T12:03:44.982Z,1.13
2022-11-21T12:07:26.209Z,1.00
2022-11-21T12:09:38.127Z,1.30
2022-11-21T12:12:16.272Z,1.17
2022-11-21T12:15:43.609Z,1.03
2022-11-21T12:18:16.338Z,1.17
2022-11-21T12:21:09.157Z,1.00
2022-11-21T12:23:50.957Z,1.20
2022-11-21T12:26:20.625Z,1.10
2022-11-21T12:28:53.381Z,0.90
2022-11-21T12:31:26.096Z,0.70
2022-11-21T12:34:34.194Z,1.00
2022-11-21T12:37:27.819Z,0.80
2022-11-21T12:40:23.191Z,1.00
2022-11-21T12:43:27.574Z,1.00
2022-11-21T12:46:06.046Z,0.90
2022-11-21T12:48:57.253Z,0.90
2022-11-21T12:51:46.030Z,1.00
2022-11-21T12:54:30.662Z,0.50
2022-11-21T12:57:16.691Z,0.73
2022-11-21T12:59:55.354Z,0.97
2022-11-21T13:02:47.615Z,0.90
2022-11-21T13:05:21.317Z,0.77
2022-11-21T13:07:49.672Z,0.83
2022-11-21T13:10:17.660Z,0.90
2022-11-21T13:12:59.626Z,0.97
2022-11-21T13:15:36.929Z,0.60
2022-11-21T13:18:28.139Z,0.80
2022-11-21T13:20:54.875Z,0.90
2022-11-21T13:23:40.706Z,0.90
2022-11-21T13:26:25.380Z,0.67
2022-11-21T13:29:11.191Z,0.90
2022-11-21T13:31:38.679Z,0.77
2022-11-21T13:34:05.931Z,0.80
2022-11-21T13:36:32.643Z,0.60
2022-11-21T13:38:59.932Z,1.13
2022-11-21T13:41:53.984Z,0.90
2022-11-21T13:44:36.520Z,1.00
2022-11-21T13:47:05.416Z,0.97
2022-11-21T13:49:38.322Z,0.90
2022-11-21T13:52:24.843Z,0.73
2022-11-21T13:55:16.443Z,0.60
2022-11-21T13:57:55.745Z,1.03
2022-11-21T14:01:07.600Z,0.90
2022-11-21T14:03:58.574Z,0.90
2022-11-21T14:06:33.461Z,1.43
2022-11-21T14:09:25.213Z,0.80
2022-11-21T14:12:08.627Z,1.00
2022-11-21T14:14:49.780Z,1.17
2022-11-21T14:17:40.540Z,1.10
2022-11-21T14:20:13.697Z,1.23
2022-11-21T14:22:45.670Z,1.20
2022-11-21T14:25:19.214Z,0.87
2022-11-21T14:27:51.790Z,1.17
2022-11-21T14:30:39.100Z,1.10
2022-11-21T14:33:24.820Z,1.20
2022-11-21T14:36:13.236Z,1.40
2022-11-21T14:38:44.797Z,1.60
2022-11-21T14:41:32.306Z,1.33
2022-11-21T14:43:58.854Z,0.90
2022-11-21T14:46:28.454Z,1.40
2022-11-21T14:48:57.406Z,1.27
2022-11-21T14:51:25.688Z,1.10
2022-11-21T14:53:53.739Z,1.40
2022-11-21T14:56:29.995Z,1.30
2022-11-21T14:58:59.308Z,1.40
2022-11-21T15:01:29.296Z,1.43
2022-11-21T15:04:01.165Z,1.50
2022-11-21T15:06:31.454Z,1.60
2022-11-21T15:11:56.734Z,1.70
2022-11-21T15:14:39.465Z,1.30
2022-11-21T15:17:12.669Z,1.40
2022-11-21T15:19:42.319Z,1.80
2022-11-21T15:22:33.235Z,1.80
2022-11-21T15:25:17.707Z,1.80
2022-11-21T15:27:49.293Z,3.65
2022-11-21T15:30:19.270Z,2.50
2022-11-21T15:33:04.658Z,3.43
2022-11-21T15:35:56.643Z,2.97
2022-11-21T15:38:41.731Z,5.20
2022-11-21T15:41:08.088Z,3.43
2022-11-21T15:43:45.658Z,2.73
2022-11-21T15:46:23.095Z,2.40
2022-11-21T15:48:52.405Z,2.60
2022-11-21T15:52:10.644Z,2.03
2022-11-21T15:54:29.035Z,1.90
2022-11-21T15:56:55.968Z,1.60
2022-11-21T15:59:25.689Z,1.93
2022-11-21T16:01:52.870Z,1.63
2022-11-21T16:04:25.074Z,2.50
2022-11-21T16:06:54.432Z,2.97
2022-11-21T16:09:23.624Z,2.70
2022-11-21T16:11:50.181Z,2.67
2022-11-21T16:14:18.414Z,2.17
2022-11-21T16:16:47.306Z,2.23
2022-11-21T16:19:15.215Z,2.00
2022-11-21T16:21:42.327Z,1.87
2022-11-21T16:24:09.244Z,2.17
2022-11-21T16:26:36.011Z,2.50
2022-11-21T16:29:05.534Z,2.70
2022-11-21T16:31:33.141Z,1.87
2022-11-21T16:34:00.915Z,2.33
2022-11-21T16:36:32.262Z,2.10
2022-11-21T16:39:07.794Z,2.23
2022-11-21T16:41:37.016Z,2.40
2022-11-21T16:44:03.891Z,2.10
2022-11-21T16:46:30.536Z,1.80
2022-11-21T16:49:02.783Z,2.30
2022-11-21T16:51:29.708Z,2.20
2022-11-21T16:53:57.563Z,1.97
2022-11-21T16:56:24.873Z,2.07
2022-11-21T16:58:52.002Z,3.17
2022-11-21T17:01:24.173Z,2.30
2022-11-21T17:03:51.250Z,2.90
2022-11-21T17:06:21.366Z,3.20
2022-11-21T17:08:48.027Z,2.40
2022-11-21T17:11:19.290Z,2.43
2022-11-21T17:13:47.632Z,2.60
2022-11-21T17:16:15.886Z,3.20
2022-11-21T17:18:43.001Z,2.80
2022-11-21T17:21:12.400Z,2.10
2022-11-21T17:23:43.517Z,2.10
2022-11-21T17:26:15.977Z,2.43
2022-11-21T17:28:45.955Z,2.40
2022-11-21T17:31:15.739Z,2.20
2022-11-21T17:33:43.819Z,2.43
2022-11-21T17:36:12.684Z,2.40
2022-11-21T17:38:40.895Z,3.73
2022-11-21T17:41:10.453Z,2.40
2022-11-21T17:43:37.098Z,2.23
2022-11-21T17:46:15.003Z,2.57
2022-11-21T17:48:41.664Z,2.53
2022-11-21T17:51:12.706Z,2.60
2022-11-21T17:53:50.568Z,2.20
2022-11-21T17:56:23.547Z,2.03
2022-11-21T17:58:51.231Z,1.83
2022-11-21T18:01:21.015Z,2.10
2022-11-21T18:04:10.110Z,2.10
2022-11-21T18:06:40.325Z,2.23
2022-11-21T18:09:08.121Z,2.37
2022-11-21T18:11:39.993Z,2.00
2022-11-21T18:14:08.381Z,2.67
2022-11-21T18:16:35.243Z,2.50
2022-11-21T18:19:02.551Z,2.43
2022-11-21T18:21:32.100Z,2.00
2022-11-21T18:24:02.042Z,2.03
2022-11-21T18:26:36.863Z,2.20
2022-11-21T18:29:35.558Z,2.67
2022-11-21T18:31:53.274Z,2.80
2022-11-21T18:34:19.894Z,2.47
2022-11-21T18:36:47.744Z,2.33
2022-11-21T18:39:15.638Z,2.50
2022-11-21T18:41:42.796Z,2.73
2022-11-21T18:44:10.016Z,2.80
2022-11-21T18:46:37.464Z,2.80
2022-11-21T18:49:07.268Z,2.70
2022-11-21T18:51:35.713Z,2.87
2022-11-21T18:54:11.740Z,3.40
2022-11-21T18:56:39.370Z,5.30
2022-11-21T18:59:06.682Z,6.90
2022-11-21T19:01:35.416Z,6.20
2022-11-21T19:04:02.226Z,4.83
2022-11-21T19:06:29.073Z,4.80
2022-11-21T19:08:57.648Z,4.20
2022-11-21T19:11:27.081Z,5.13
2022-11-21T19:13:55.372Z,4.33
2022-11-21T19:16:24.869Z,4.40
2022-11-21T19:19:25.995Z,3.90
2022-11-21T19:21:40.016Z,4.77
2022-11-21T19:24:07.579Z,3.73
2022-11-21T19:26:34.340Z,3.50
2022-11-21T19:29:01.712Z,2.83
2022-11-21T19:31:28.473Z,3.23
2022-11-21T19:33:55.034Z,2.87
2022-11-21T19:36:23.698Z,3.07
2022-11-21T19:38:51.787Z,3.10
2022-11-21T19:41:26.743Z,3.00
2022-11-21T19:43:56.393Z,3.30
2022-11-21T19:46:24.944Z,3.93
2022-11-21T19:48:53.544Z,3.50
2022-11-21T19:51:22.932Z,3.90
2022-11-21T19:53:49.863Z,2.93
2022-11-21T19:56:19.484Z,3.23
2022-11-21T19:58:47.351Z,3.20
2022-11-21T20:01:22.507Z,2.90
2022-11-21T20:03:54.458Z,3.37
2022-11-21T20:06:33.241Z,4.10
2022-11-21T20:09:02.653Z,3.90
2022-11-21T20:11:30.733Z,4.50
2022-11-21T20:13:57.470Z,3.83
2022-11-21T20:16:23.854Z,4.17
2022-11-21T20:18:51.177Z,4.30
2022-11-21T20:21:18.908Z,2.80
2022-11-21T20:23:46.655Z,2.87
2022-11-21T20:26:14.854Z,3.33
2022-11-21T20:28:41.599Z,2.43
2022-11-21T20:31:11.876Z,3.23
2022-11-21T20:33:41.535Z,2.87
2022-11-21T20:36:16.293Z,2.63
2022-11-21T20:38:44.113Z,2.27
2022-11-21T20:41:12.222Z,2.77
2022-11-21T20:44:24.594Z,2.43
2022-11-21T20:46:25.166Z,2.90
2022-11-21T20:48:51.850Z,2.70
2022-11-21T20:54:05.868Z,3.40
2022-11-21T20:56:34.640Z,2.93
2022-11-21T20:59:01.721Z,3.10
2022-11-21T21:01:28.776Z,3.03
2022-11-21T21:03:55.744Z,3.40
2022-11-21T21:06:24.152Z,3.37
2022-11-21T21:08:51.922Z,3.53
2022-11-21T21:11:53.710Z,3.60
2022-11-21T21:14:10.071Z,3.40
2022-11-21T21:16:36.593Z,4.13
2022-11-21T21:19:03.566Z,4.30
2022-11-21T21:21:33.564Z,4.27
2022-11-21T21:24:03.664Z,4.60
2022-11-21T21:26:40.223Z,3.93
2022-11-21T21:29:13.717Z,3.77
2022-11-21T21:31:45.231Z,3.70
2022-11-21T21:34:13.614Z,3.97
2022-11-21T21:36:40.129Z,3.50
2022-11-21T21:39:06.726Z,3.83
2022-11-21T21:41:33.525Z,3.40
2022-11-21T21:44:00.225Z,3.37
2022-11-21T21:46:27.899Z,3.83
2022-11-21T21:48:58.371Z,2.70
2022-11-21T21:51:27.464Z,3.03
2022-11-21T21:53:55.666Z,3.03
2022-11-21T21:56:23.566Z,3.30
2022-11-21T21:58:51.285Z,2.70
2022-11-21T22:01:19.610Z,2.80
2022-11-21T22:03:47.267Z,2.57
2022-11-21T22:06:16.090Z,2.77
2022-11-21T22:08:43.715Z,3.07
2022-11-21T22:11:13.326Z,2.57
2022-11-21T22:13:42.274Z,2.90
2022-11-21T22:16:12.309Z,3.03
2022-11-21T22:18:39.797Z,2.50
2022-11-21T22:21:21.008Z,2.40
2022-11-21T22:24:17.374Z,2.17
2022-11-21T22:26:34.668Z,2.33
2022-11-21T22:29:01.207Z,2.50
2022-11-21T22:31:30.183Z,2.10
2022-11-21T22:33:57.818Z,2.63
2022-11-21T22:36:24.432Z,2.53
2022-11-21T22:38:55.164Z,2.73
2022-11-21T22:41:24.170Z,2.77
2022-11-21T22:43:55.730Z,2.97
2022-11-21T22:46:23.039Z,3.40
2022-11-21T22:48:49.813Z,2.70
2022-11-21T22:51:29.305Z,2.73
2022-11-21T22:53:59.579Z,2.57
2022-11-21T22:56:27.326Z,2.37
2022-11-21T22:58:54.280Z,2.50
2022-11-21T23:01:23.348Z,2.90
2022-11-21T23:03:50.835Z,2.90
2022-11-21T23:06:23.672Z,2.70
2022-11-21T23:08:51.165Z,2.50
2022-11-21T23:11:20.110Z,2.60
2022-11-21T23:13:48.872Z,2.33
2022-11-21T23:16:16.287Z,2.87
2022-11-21T23:18:43.144Z,3.13
2022-11-21T23:21:11.107Z,2.80
2022-11-21T23:23:37.828Z,2.70
2022-11-21T23:26:05.891Z,3.10
2022-11-21T23:28:33.191Z,3.23
2022-11-21T23:31:00.136Z,2.57
2022-11-21T23:33:26.703Z,2.60
2022-11-21T23:35:53.984Z,2.80
2022-11-21T23:38:21.908Z,3.20
2022-11-21T23:40:49.698Z,2.53
2022-11-21T23:43:17.609Z,2.53
2022-11-21T23:45:45.605Z,2.50
2022-11-21T23:48:12.341Z,2.80
2022-11-21T23:50:39.480Z,2.83
2022-11-21T23:53:09.669Z,2.63
2022-11-21T23:55:37.866Z,2.33
2022-11-21T23:58:04.810Z,2.30
